AYWK

Wewak International Airport

Wewak, Papua New Guinea

AYWK 200000Z 09007KT 9999 FEW020 31/25 Q1011

Observed Flight Rules
Oct-20 @ 00:00 UTC (13 hours ago)
 
Visual Flight Rules
Wind Visibility Clouds
90° at 7 knots 10,000+ meters
  • Few at 2,000' AGL
Temperatures Readings
Current 31°C / 88°F
Dewpoint 25°C / 77°F
Humidity 70%
Altimeter 29.85" Hg
Pressure 1011 hPa
Elevation 6
Observed Flight Rules
Oct-20 @ 00:00 UTC
(13 hours ago)
 
VFR
Wind Visibility
90° at 7 knots 10,000+ meters
Clouds
  • Few at 2,000' AGL
Temperature Dewpoint
31°C / 88°F 25°C / 77°F
Humidity Altimeter Pressure
70% 29.85" Hg 1011 hPa